createdAt,value
2019-03-05T00:01:26.193Z,41.80
2019-03-05T00:04:01.167Z,41.90
2019-03-05T00:06:35.976Z,41.90
2019-03-05T00:09:12.367Z,41.50
2019-03-05T00:11:47.086Z,42.20
2019-03-05T00:14:23.050Z,42.80
2019-03-05T00:16:58.010Z,42.10
2019-03-05T00:19:32.685Z,42.20
2019-03-05T00:22:07.710Z,42.10
2019-03-05T00:25:01.914Z,42.40
2019-03-05T00:27:38.474Z,42.50
2019-03-05T00:30:31.463Z,42.30
2019-03-05T00:33:18.094Z,42.40
2019-03-05T00:36:07.800Z,42.60
2019-03-05T00:38:51.525Z,42.50
2019-03-05T00:41:50.208Z,42.40
2019-03-05T00:44:25.471Z,42.70
2019-03-05T00:47:06.084Z,42.90
2019-03-05T00:50:05.351Z,42.60
2019-03-05T00:52:43.282Z,43.00
2019-03-05T00:55:37.964Z,43.00
2019-03-05T00:58:25.678Z,42.70
2019-03-05T01:01:34.224Z,43.00
2019-03-05T01:04:30.657Z,42.70
2019-03-05T01:07:05.677Z,43.10
2019-03-05T01:09:40.352Z,42.90
2019-03-05T01:12:15.534Z,42.80
2019-03-05T01:14:51.666Z,42.70
2019-03-05T01:17:26.598Z,43.10
2019-03-05T01:20:01.295Z,43.00
2019-03-05T01:25:28.904Z,42.70
2019-03-05T01:28:03.595Z,42.90
2019-03-05T01:33:48.905Z,42.90
2019-03-05T01:36:31.409Z,42.70
2019-03-05T01:39:09.519Z,42.80
2019-03-05T01:41:44.462Z,43.20
2019-03-05T01:44:19.151Z,42.70
2019-03-05T01:46:54.439Z,43.00
2019-03-05T01:49:30.441Z,42.90
2019-03-05T01:52:05.048Z,43.00
2019-03-05T01:54:39.745Z,43.30
2019-03-05T01:57:14.693Z,43.10
2019-03-05T01:59:49.401Z,43.10
2019-03-05T02:02:23.787Z,43.20
2019-03-05T02:04:58.511Z,42.70
2019-03-05T02:07:33.206Z,43.00
2019-03-05T02:10:11.433Z,43.00
2019-03-05T02:12:46.229Z,42.80
2019-03-05T02:15:20.583Z,42.90
2019-03-05T02:17:55.397Z,42.90
2019-03-05T02:20:29.818Z,43.20
2019-03-05T02:23:08.115Z,43.00
2019-03-05T02:25:51.899Z,42.70
2019-03-05T02:28:41.584Z,43.30
2019-03-05T02:31:40.446Z,43.20
2019-03-05T02:34:30.660Z,43.20
2019-03-05T02:37:14.843Z,43.30
2019-03-05T02:40:11.254Z,43.00
2019-03-05T02:43:00.961Z,42.80
2019-03-05T02:45:44.532Z,43.00
2019-03-05T02:48:40.075Z,42.80
2019-03-05T02:51:23.312Z,43.10
2019-03-05T02:54:04.188Z,42.70
2019-03-05T02:56:47.963Z,43.00
2019-03-05T02:59:22.886Z,43.00
2019-03-05T03:01:59.321Z,42.70
2019-03-05T03:04:35.879Z,42.80
2019-03-05T03:07:10.768Z,43.40
2019-03-05T03:09:51.887Z,43.20
2019-03-05T03:12:26.560Z,43.20
2019-03-05T03:15:01.783Z,42.80
2019-03-05T03:17:36.860Z,43.40
2019-03-05T03:20:14.010Z,43.00
2019-03-05T03:22:48.981Z,43.20
2019-03-05T03:25:24.980Z,43.40
2019-03-05T03:27:59.750Z,43.50
2019-03-05T03:30:34.472Z,43.20
2019-03-05T03:33:09.371Z,43.20
2019-03-05T03:35:43.978Z,43.50
2019-03-05T03:38:18.664Z,43.40
2019-03-05T03:40:53.862Z,43.00
2019-03-05T03:43:28.758Z,43.30
2019-03-05T03:46:03.711Z,43.70
2019-03-05T03:48:38.621Z,43.70
2019-03-05T03:51:14.299Z,43.60
2019-03-05T03:53:48.730Z,43.10
2019-03-05T03:56:23.398Z,43.70
2019-03-05T03:58:58.093Z,43.70
2019-03-05T04:01:32.786Z,43.70
2019-03-05T04:04:08.055Z,43.80
2019-03-05T04:06:43.026Z,43.50
2019-03-05T04:09:18.012Z,43.80
2019-03-05T04:11:52.986Z,43.90
2019-03-05T04:14:27.381Z,43.70
2019-03-05T04:17:02.298Z,43.70
2019-03-05T04:19:37.406Z,43.80
2019-03-05T04:22:12.291Z,43.40
2019-03-05T04:24:47.331Z,43.60
2019-03-05T04:27:22.004Z,43.40
2019-03-05T04:29:57.139Z,43.90
2019-03-05T04:32:31.531Z,44.00
2019-03-05T04:35:09.331Z,43.80
2019-03-05T04:37:44.007Z,43.70
2019-03-05T04:40:18.477Z,44.00
2019-03-05T04:42:53.305Z,43.70
2019-03-05T04:45:50.579Z,44.10
2019-03-05T04:48:25.480Z,43.90
2019-03-05T04:51:01.966Z,44.00
2019-03-05T04:53:36.938Z,43.70
2019-03-05T04:56:11.345Z,43.90
2019-03-05T04:58:46.064Z,43.40
2019-03-05T05:01:20.764Z,44.10
2019-03-05T05:03:55.452Z,43.90
2019-03-05T05:06:30.165Z,44.10
2019-03-05T05:09:06.692Z,44.30
2019-03-05T05:11:41.622Z,44.20
2019-03-05T05:14:16.186Z,44.20
2019-03-05T05:16:50.912Z,44.20
2019-03-05T05:19:27.377Z,44.30
2019-03-05T05:22:02.312Z,44.00
2019-03-05T05:24:37.022Z,44.20
2019-03-05T05:27:12.002Z,44.80
2019-03-05T05:29:46.478Z,44.00
2019-03-05T05:32:21.434Z,43.70
2019-03-05T05:34:56.301Z,44.10
2019-03-05T05:37:31.021Z,44.10
2019-03-05T05:40:29.830Z,43.90
2019-03-05T05:43:05.902Z,44.60
2019-03-05T05:45:43.537Z,44.00
2019-03-05T05:48:18.311Z,43.90
2019-03-05T05:50:52.990Z,43.80
2019-03-05T05:53:27.844Z,43.80
2019-03-05T05:56:02.321Z,43.70
2019-03-05T05:58:49.615Z,43.40
2019-03-05T06:01:24.085Z,43.30
2019-03-05T06:03:58.949Z,43.20
2019-03-05T06:06:33.664Z,43.10
2019-03-05T06:09:08.457Z,43.00
2019-03-05T06:11:43.181Z,42.60
2019-03-05T06:14:17.627Z,42.30
2019-03-05T06:16:52.571Z,42.40
2019-03-05T06:19:27.639Z,42.50
2019-03-05T06:22:02.659Z,42.50
2019-03-05T06:24:37.575Z,42.50
2019-03-05T06:27:13.471Z,42.30
2019-03-05T06:29:48.455Z,42.50
2019-03-05T06:32:23.439Z,41.90
2019-03-05T06:34:58.509Z,42.00
2019-03-05T06:37:33.288Z,42.00
2019-03-05T06:40:18.533Z,41.80
2019-03-05T06:42:53.223Z,42.10
2019-03-05T06:45:27.716Z,41.40
2019-03-05T06:48:02.469Z,41.60
2019-03-05T06:50:37.286Z,41.70
2019-03-05T06:53:13.156Z,41.50
2019-03-05T06:55:47.563Z,41.40
2019-03-05T06:58:22.282Z,41.50
2019-03-05T07:00:56.971Z,41.20
2019-03-05T07:03:31.931Z,41.40
2019-03-05T07:06:43.454Z,41.30
2019-03-05T07:09:27.509Z,41.30
2019-03-05T07:12:20.368Z,41.50
2019-03-05T07:15:16.400Z,41.40
2019-03-05T07:18:03.242Z,41.00
2019-03-05T07:20:59.316Z,41.20
2019-03-05T07:23:37.296Z,40.80
2019-03-05T07:26:12.138Z,41.00
2019-03-05T07:28:46.872Z,41.30
2019-03-05T07:31:21.584Z,41.20
2019-03-05T07:33:56.600Z,41.20
2019-03-05T07:36:32.268Z,41.20
2019-03-05T07:39:07.787Z,40.90
2019-03-05T07:41:42.534Z,41.10
2019-03-05T07:44:17.478Z,40.80
2019-03-05T07:46:52.248Z,41.00
2019-03-05T07:49:27.243Z,41.20
2019-03-05T07:52:02.209Z,41.00
2019-03-05T07:54:36.910Z,41.20
2019-03-05T07:57:11.472Z,40.70
2019-03-05T07:59:46.183Z,41.30
2019-03-05T08:02:21.371Z,41.30
2019-03-05T08:04:56.399Z,41.20
2019-03-05T08:07:31.475Z,41.20
2019-03-05T08:10:27.057Z,41.20
2019-03-05T08:13:05.261Z,41.10
2019-03-05T08:16:10.149Z,41.20
2019-03-05T08:18:44.817Z,41.10
2019-03-05T08:21:19.681Z,41.00
2019-03-05T08:23:54.655Z,41.20
2019-03-05T08:26:29.365Z,40.50
2019-03-05T08:29:04.327Z,41.00
2019-03-05T08:31:39.469Z,41.00
2019-03-05T08:34:14.355Z,41.10
2019-03-05T08:36:48.745Z,40.90
2019-03-05T08:39:23.528Z,40.70
2019-03-05T08:41:58.300Z,40.80
2019-03-05T08:44:35.108Z,41.00
2019-03-05T08:47:09.546Z,40.90
2019-03-05T08:49:44.262Z,40.60
2019-03-05T08:52:19.223Z,40.50
2019-03-05T08:54:53.768Z,40.80
2019-03-05T08:57:28.522Z,40.70
2019-03-05T09:00:05.133Z,40.80
2019-03-05T09:02:48.103Z,40.70
2019-03-05T09:05:18.328Z,40.90
2019-03-05T09:07:53.289Z,40.40
2019-03-05T09:10:27.986Z,40.80
2019-03-05T09:13:02.811Z,40.40
2019-03-05T09:15:37.866Z,40.40
2019-03-05T09:18:13.570Z,40.30
2019-03-05T09:20:48.348Z,41.00
2019-03-05T09:23:23.444Z,40.40
2019-03-05T09:25:57.784Z,40.00
2019-03-05T09:28:32.624Z,40.50
2019-03-05T09:31:07.440Z,40.20
2019-03-05T09:33:42.346Z,40.50
2019-03-05T09:36:16.976Z,40.10
2019-03-05T09:38:51.750Z,40.40
2019-03-05T09:41:27.680Z,40.30
2019-03-05T09:44:02.612Z,39.90
2019-03-05T09:46:37.462Z,40.30
2019-03-05T09:49:13.347Z,40.00
2019-03-05T09:51:47.787Z,40.00
2019-03-05T09:54:22.717Z,40.00
2019-03-05T09:56:57.728Z,39.50
2019-03-05T09:59:32.637Z,39.60
2019-03-05T10:02:07.055Z,39.30
2019-03-05T10:04:42.031Z,39.40
2019-03-05T10:07:19.273Z,39.60
2019-03-05T10:09:53.265Z,39.30
2019-03-05T10:12:30.106Z,39.30
2019-03-05T10:15:10.449Z,39.50
2019-03-05T10:17:45.678Z,39.50
2019-03-05T10:20:25.075Z,39.80
2019-03-05T10:23:01.175Z,39.90
2019-03-05T10:25:35.871Z,39.80
2019-03-05T10:28:10.825Z,40.00
2019-03-05T10:30:45.823Z,40.10
2019-03-05T10:33:20.807Z,39.90
2019-03-05T10:35:56.092Z,40.30
2019-03-05T10:38:30.859Z,40.20
2019-03-05T10:41:05.631Z,40.10
2019-03-05T10:43:40.711Z,40.10
2019-03-05T10:46:15.765Z,40.10
2019-03-05T10:48:50.897Z,40.30
2019-03-05T10:51:25.722Z,40.40
2019-03-05T10:54:02.187Z,40.30
2019-03-05T10:56:37.356Z,40.20
2019-03-05T10:59:11.924Z,40.50
2019-03-05T11:01:46.992Z,39.80
2019-03-05T11:04:21.947Z,40.30
2019-03-05T11:06:56.497Z,40.20
2019-03-05T11:09:31.367Z,40.00
2019-03-05T11:12:06.076Z,39.50
2019-03-05T11:14:40.885Z,40.10
2019-03-05T11:17:15.894Z,39.30
2019-03-05T11:19:50.323Z,39.10
2019-03-05T11:22:25.295Z,39.20
2019-03-05T11:25:00.346Z,40.00
2019-03-05T11:27:35.241Z,39.50
2019-03-05T11:30:13.710Z,39.60
2019-03-05T11:32:48.806Z,39.60
2019-03-05T11:35:26.128Z,40.00
2019-03-05T11:38:01.016Z,39.20
2019-03-05T11:40:36.526Z,38.90
2019-03-05T11:43:13.436Z,39.40
2019-03-05T11:45:48.328Z,39.10
2019-03-05T11:48:23.150Z,39.10
2019-03-05T11:50:58.142Z,39.10
2019-03-05T11:53:34.279Z,39.10
2019-03-05T11:56:09.076Z,39.10
2019-03-05T11:58:44.229Z,38.90
2019-03-05T12:01:20.811Z,39.10
2019-03-05T12:03:55.903Z,39.10
2019-03-05T12:06:30.868Z,39.20
2019-03-05T12:09:05.966Z,39.10
2019-03-05T12:11:41.756Z,39.30
2019-03-05T12:14:16.520Z,39.20
2019-03-05T12:16:52.486Z,39.00
2019-03-05T12:19:27.367Z,39.10
2019-03-05T12:22:02.101Z,39.40
2019-03-05T12:24:37.295Z,39.50
2019-03-05T12:27:13.531Z,39.70
2019-03-05T12:29:48.210Z,39.80
2019-03-05T12:32:24.523Z,40.00
2019-03-05T12:34:59.432Z,40.00
2019-03-05T12:37:34.144Z,40.20
2019-03-05T12:40:11.957Z,40.00
2019-03-05T12:42:47.343Z,40.00
2019-03-05T12:45:25.095Z,40.00
2019-03-05T12:48:00.017Z,40.00
2019-03-05T12:50:35.915Z,39.90
2019-03-05T12:53:10.635Z,40.00
2019-03-05T12:55:45.557Z,40.00
2019-03-05T12:58:20.273Z,39.90
2019-03-05T13:00:55.177Z,40.00
2019-03-05T13:03:30.993Z,39.80
2019-03-05T13:06:05.618Z,39.80
2019-03-05T13:08:40.362Z,40.20
2019-03-05T13:11:15.295Z,40.00
2019-03-05T13:13:51.295Z,40.10
2019-03-05T13:16:25.801Z,40.20
2019-03-05T13:19:00.527Z,40.20
2019-03-05T13:21:34.954Z,40.20
2019-03-05T13:24:10.028Z,40.40
2019-03-05T13:26:46.454Z,40.20
2019-03-05T13:29:21.616Z,38.60
2019-03-05T13:31:56.624Z,40.80
2019-03-05T13:34:31.593Z,41.90
2019-03-05T13:37:06.702Z,41.80
2019-03-05T13:39:41.773Z,41.80
2019-03-05T13:42:16.380Z,41.40
2019-03-05T13:44:51.312Z,40.80
2019-03-05T13:47:26.742Z,39.40
2019-03-05T13:50:25.082Z,39.70
2019-03-05T13:53:14.610Z,40.40
2019-03-05T13:56:07.584Z,39.60
2019-03-05T13:58:49.224Z,38.90
2019-03-05T14:01:23.990Z,39.50
2019-03-05T14:04:01.897Z,39.80
2019-03-05T14:06:43.100Z,40.00
2019-03-05T14:09:18.396Z,39.90
2019-03-05T14:11:53.452Z,40.30
2019-03-05T14:14:28.381Z,41.00
2019-03-05T14:17:07.979Z,41.20
2019-03-05T14:19:44.906Z,41.80
2019-03-05T14:22:20.543Z,41.90
2019-03-05T14:25:02.058Z,41.50
2019-03-05T14:27:33.275Z,41.90
2019-03-05T14:30:15.913Z,42.10
2019-03-05T14:32:50.946Z,41.70
2019-03-05T14:35:26.602Z,41.90
2019-03-05T14:38:01.378Z,41.70
2019-03-05T14:40:37.908Z,41.50
2019-03-05T14:43:13.864Z,41.40
2019-03-05T14:45:49.348Z,41.20
2019-03-05T14:48:24.366Z,41.20
2019-03-05T14:50:59.377Z,41.40
2019-03-05T14:53:34.241Z,41.30
2019-03-05T14:56:09.219Z,41.50
2019-03-05T14:58:43.933Z,42.20
2019-03-05T15:01:18.881Z,41.00
2019-03-05T15:03:53.388Z,41.80
2019-03-05T15:06:28.355Z,41.80
2019-03-05T15:09:04.694Z,42.10
2019-03-05T15:11:40.687Z,42.20
2019-03-05T15:14:15.626Z,42.20
2019-03-05T15:16:50.328Z,42.20
2019-03-05T15:19:25.219Z,42.40
2019-03-05T15:21:59.891Z,42.40
2019-03-05T15:24:34.829Z,42.40
2019-03-05T15:27:09.279Z,42.50
2019-03-05T15:29:44.195Z,42.50
2019-03-05T15:32:19.167Z,41.40
2019-03-05T15:34:54.178Z,41.80
2019-03-05T15:37:29.057Z,41.80
2019-03-05T15:40:09.366Z,42.20
2019-03-05T15:42:44.148Z,42.10
2019-03-05T15:45:23.201Z,42.10
2019-03-05T15:47:58.164Z,42.20
2019-03-05T15:50:33.024Z,42.10
2019-03-05T15:53:08.126Z,42.30
2019-03-05T15:55:42.947Z,42.20
2019-03-05T15:58:17.829Z,42.40
2019-03-05T16:00:52.680Z,42.10
2019-03-05T16:03:27.418Z,41.80
2019-03-05T16:06:02.479Z,42.40
2019-03-05T16:08:37.351Z,42.50
2019-03-05T16:11:13.504Z,42.40
2019-03-05T16:13:48.263Z,42.60
2019-03-05T16:16:23.207Z,42.70
2019-03-05T16:18:58.249Z,42.70
2019-03-05T16:21:33.120Z,42.80
2019-03-05T16:24:10.108Z,43.00
2019-03-05T16:26:44.425Z,43.00
2019-03-05T16:29:20.147Z,42.90
2019-03-05T16:31:57.397Z,43.20
2019-03-05T16:34:34.371Z,43.40
2019-03-05T16:37:30.921Z,43.60
2019-03-05T16:40:10.385Z,43.70
2019-03-05T16:42:49.951Z,44.00
2019-03-05T16:45:32.622Z,44.10
2019-03-05T16:48:25.464Z,44.20
2019-03-05T16:51:07.748Z,44.40
2019-03-05T16:54:02.551Z,44.30
2019-03-05T16:56:39.274Z,44.20
2019-03-05T16:59:15.373Z,44.40
2019-03-05T17:02:00.885Z,44.40
2019-03-05T17:04:52.733Z,44.80
2019-03-05T17:07:45.648Z,44.70
2019-03-05T17:10:31.224Z,44.30
2019-03-05T17:13:06.610Z,44.30
2019-03-05T17:15:41.635Z,44.80
2019-03-05T17:18:16.570Z,44.60
2019-03-05T17:20:51.313Z,44.70
2019-03-05T17:23:25.795Z,44.60
2019-03-05T17:26:02.235Z,45.20
2019-03-05T17:28:36.886Z,44.60
2019-03-05T17:31:12.807Z,44.30
2019-03-05T17:33:47.668Z,44.50
2019-03-05T17:36:22.450Z,44.70
2019-03-05T17:38:57.786Z,45.00
2019-03-05T17:41:32.566Z,44.90
2019-03-05T17:44:07.352Z,44.90
2019-03-05T17:46:43.501Z,45.00
2019-03-05T17:49:18.762Z,45.00
2019-03-05T17:51:53.904Z,45.20
2019-03-05T17:54:28.779Z,44.90
2019-03-05T17:57:03.888Z,44.90
2019-03-05T17:59:38.929Z,45.00
2019-03-05T18:02:14.115Z,45.00
2019-03-05T18:04:50.926Z,45.10
2019-03-05T18:07:26.455Z,45.00
2019-03-05T18:10:02.418Z,45.00
2019-03-05T18:12:37.688Z,45.10
2019-03-05T18:15:15.008Z,44.90
2019-03-05T18:17:50.184Z,45.20
2019-03-05T18:20:25.545Z,45.10
2019-03-05T18:23:01.962Z,45.10
2019-03-05T18:25:38.844Z,45.20
2019-03-05T18:28:14.399Z,45.20
2019-03-05T18:30:49.887Z,45.20
2019-03-05T18:33:26.333Z,45.10
2019-03-05T18:36:01.272Z,45.10
2019-03-05T18:38:37.534Z,45.10
2019-03-05T18:41:13.324Z,45.20
2019-03-05T18:43:48.645Z,45.20
2019-03-05T18:46:23.296Z,45.10
2019-03-05T18:48:58.245Z,45.10
2019-03-05T18:51:33.311Z,45.00
2019-03-05T18:54:08.394Z,45.00
2019-03-05T18:56:43.824Z,45.00
2019-03-05T18:59:20.521Z,45.20
2019-03-05T19:01:55.595Z,45.10
2019-03-05T19:04:30.409Z,45.20
2019-03-05T19:07:05.413Z,45.20
2019-03-05T19:09:40.587Z,45.10
2019-03-05T19:12:15.569Z,45.10
2019-03-05T19:14:51.937Z,45.10
2019-03-05T19:17:28.158Z,45.10
2019-03-05T19:20:03.354Z,45.00
2019-03-05T19:22:40.057Z,45.00
2019-03-05T19:25:18.334Z,45.00
2019-03-05T19:27:53.117Z,45.00
2019-03-05T19:30:51.215Z,44.90
2019-03-05T19:33:26.397Z,44.90
2019-03-05T19:36:01.233Z,44.80
2019-03-05T19:38:35.967Z,45.00
2019-03-05T19:41:11.122Z,44.70
2019-03-05T19:43:46.103Z,44.60
2019-03-05T19:46:21.065Z,44.50
2019-03-05T19:48:55.783Z,44.60
2019-03-05T19:51:30.502Z,44.70
2019-03-05T19:54:05.243Z,45.40
2019-03-05T19:56:40.092Z,44.60
2019-03-05T19:59:17.002Z,44.70
2019-03-05T20:01:51.655Z,44.70
2019-03-05T20:04:29.479Z,44.70
2019-03-05T20:07:04.121Z,44.60
2019-03-05T20:09:38.582Z,44.50
2019-03-05T20:12:13.722Z,44.40
2019-03-05T20:14:48.772Z,44.30
2019-03-05T20:17:23.697Z,44.20
2019-03-05T20:19:58.580Z,44.20
2019-03-05T20:22:33.642Z,44.00
2019-03-05T20:25:11.903Z,44.40
2019-03-05T20:27:49.095Z,44.40
2019-03-05T20:30:25.751Z,44.50
2019-03-05T20:33:00.938Z,44.50
2019-03-05T20:35:35.756Z,44.40
2019-03-05T20:38:11.364Z,44.40
2019-03-05T20:40:46.594Z,44.30
2019-03-05T20:43:22.875Z,44.30
2019-03-05T20:46:03.584Z,44.20
2019-03-05T20:48:38.372Z,44.20
2019-03-05T20:51:13.577Z,44.30
2019-03-05T20:53:48.685Z,44.20
2019-03-05T20:56:24.618Z,44.10
2019-03-05T20:59:01.024Z,44.40
2019-03-05T21:01:37.669Z,44.30
2019-03-05T21:04:14.128Z,44.30
2019-03-05T21:06:50.659Z,44.30
2019-03-05T21:09:25.681Z,44.40
2019-03-05T21:12:00.442Z,44.10
2019-03-05T21:14:35.757Z,44.20
2019-03-05T21:17:10.995Z,44.30
2019-03-05T21:19:45.977Z,44.20
2019-03-05T21:22:21.011Z,44.30
2019-03-05T21:24:55.953Z,44.20
2019-03-05T21:27:31.123Z,44.30
2019-03-05T21:30:09.146Z,44.90
2019-03-05T21:32:43.782Z,44.00
2019-03-05T21:35:18.805Z,43.90
2019-03-05T21:37:53.789Z,43.80
2019-03-05T21:40:32.779Z,43.80
2019-03-05T21:43:07.530Z,43.90
2019-03-05T21:45:51.006Z,44.10
2019-03-05T21:48:25.873Z,44.00
2019-03-05T21:51:00.899Z,44.00
2019-03-05T21:53:35.806Z,44.10
2019-03-05T21:56:10.858Z,44.20
2019-03-05T21:58:45.586Z,44.10
2019-03-05T22:01:20.504Z,44.10
2019-03-05T22:03:55.427Z,44.10
2019-03-05T22:06:29.950Z,44.10
2019-03-05T22:09:06.262Z,44.10
2019-03-05T22:11:42.764Z,44.10
2019-03-05T22:14:17.802Z,44.10
2019-03-05T22:16:52.646Z,44.10
2019-03-05T22:19:27.832Z,44.00
2019-03-05T22:22:02.883Z,43.80
2019-03-05T22:24:37.643Z,43.80
2019-03-05T22:27:13.773Z,43.70
2019-03-05T22:29:49.075Z,43.60
2019-03-05T22:32:24.110Z,43.80
2019-03-05T22:34:59.243Z,43.70
2019-03-05T22:37:34.174Z,43.60
2019-03-05T22:40:11.460Z,43.60
2019-03-05T22:42:45.952Z,43.50
2019-03-05T22:45:23.640Z,43.40
2019-03-05T22:47:58.136Z,43.40
2019-03-05T22:50:32.994Z,43.40
2019-03-05T22:53:08.084Z,43.40
2019-03-05T22:55:43.066Z,43.40
2019-03-05T22:58:18.155Z,43.20
2019-03-05T23:01:00.185Z,43.40
2019-03-05T23:03:37.319Z,43.40
2019-03-05T23:06:13.223Z,43.20
2019-03-05T23:08:48.082Z,43.40
2019-03-05T23:11:22.839Z,43.40
2019-03-05T23:13:58.047Z,43.50
2019-03-05T23:16:33.293Z,43.50
2019-03-05T23:19:08.341Z,43.60
2019-03-05T23:21:43.599Z,43.70
2019-03-05T23:24:18.089Z,43.80
2019-03-05T23:26:53.053Z,43.70
2019-03-05T23:29:29.787Z,43.90
2019-03-05T23:32:05.043Z,44.00
2019-03-05T23:34:40.115Z,44.10
2019-03-05T23:37:14.880Z,44.10
2019-03-05T23:39:50.119Z,44.10
2019-03-05T23:42:24.800Z,44.10
2019-03-05T23:44:59.885Z,44.20
2019-03-05T23:47:34.275Z,44.20
2019-03-05T23:50:10.307Z,44.20
2019-03-05T23:52:45.216Z,44.30
2019-03-05T23:55:20.112Z,44.40
2019-03-05T23:57:54.780Z,45.10
